»·PEaware :: FFT922 KABQ-KDEN

FFT922 :: KABQ-KDEN

FLIGHT INFORMATION

Flight Status: Arrived
Operator:
Frontier Airlines
More flights by this operator :: More flights under this callsign
Pilot: Max W. (2591)
Aircraft: AIRBUS A320
(A320)
More flights by this aircraft type
Origin: KABQ Albuquerque Intl Sunport
United States
Destination: KDEN Denver Intl
United States
More flights between these airports :: More routes between these airports
Route: +JEMEZ3 JEMEZ BRAZO LDORA2
File this flight plan on PilotEdge
Remarks:
Altitude:
(Current/Filed)
29,000ft
Speed:
(Current/Filed)
450kts
Departed: 28-Jul-18 12:04 PM
Arrived: 28-Jul-18 12:59 PM
Distance/Time
Traveled:
303nm/0:55
Distance/Time
To Go:
Arrived

Flight Plot

Page will automatically refresh every two minutes.

Flight plan parsing failed; only flown route is shown


Map Options




Map Legend


Flown Route
Filed Route
Departure Airport
Arrival Airport
Navaid (VOR, NDB)
Fix

Horizontal Profiles

Position Reports

Time Latitude Longitude Heading Altitude Ground
Speed
28-Jul-18 11:26 35.046885 -106.615887 5 5318ft 0kts
28-Jul-18 11:27 35.046885 -106.615887 5 5318ft 0kts
28-Jul-18 11:28 35.046885 -106.615887 5 5318ft 0kts
28-Jul-18 11:29 35.046885 -106.615887 5 5318ft 0kts
28-Jul-18 11:30 35.046885 -106.615887 5 5318ft 0kts
28-Jul-18 11:31 35.046885 -106.615887 5 5318ft 0kts
28-Jul-18 11:32 35.046885 -106.615887 5 5318ft 0kts
28-Jul-18 11:33 35.046885 -106.615887 5 5318ft 0kts
28-Jul-18 11:34 35.046885 -106.615887 5 5318ft 0kts
28-Jul-18 11:35 35.046885 -106.615887 5 5318ft 0kts
28-Jul-18 11:36 35.046885 -106.615887 5 5318ft 0kts
28-Jul-18 11:37 35.046885 -106.615887 5 5318ft 0kts
28-Jul-18 11:38 35.046885 -106.615887 5 5318ft 0kts
28-Jul-18 11:39 35.046885 -106.615887 5 5318ft 0kts
28-Jul-18 11:40 35.046885 -106.615887 5 5318ft 0kts
28-Jul-18 11:41 35.046885 -106.615887 5 5318ft 0kts
28-Jul-18 11:42 35.046885 -106.615887 5 5318ft 0kts
28-Jul-18 11:43 35.046884 -106.615887 5 5318ft 0kts
28-Jul-18 11:44 35.046884 -106.615887 5 5318ft 0kts
28-Jul-18 11:45 35.046884 -106.615887 5 5318ft 0kts
28-Jul-18 11:46 35.046884 -106.615887 5 5318ft 0kts
28-Jul-18 11:47 35.046884 -106.615887 5 5318ft 0kts
28-Jul-18 11:48 35.046884 -106.615887 5 5318ft 0kts
28-Jul-18 11:49 35.046884 -106.615887 5 5318ft 0kts
28-Jul-18 11:50 35.046884 -106.615887 5 5318ft 0kts
28-Jul-18 11:51 35.046884 -106.615887 5 5318ft 0kts
28-Jul-18 11:52 35.046884 -106.615887 5 5318ft 0kts
28-Jul-18 11:53 35.046884 -106.615887 5 5318ft 0kts
28-Jul-18 11:54 35.046776 -106.615899 4 5318ft 2kts
28-Jul-18 11:55 35.046287 -106.615701 300 5318ft 2kts
28-Jul-18 11:56 35.046226 -106.615393 270 5318ft 0kts
28-Jul-18 11:57 35.046226 -106.615393 270 5318ft 0kts
28-Jul-18 11:58 35.046226 -106.615393 270 5318ft 0kts
28-Jul-18 11:59 35.046226 -106.615393 270 5318ft 0kts
28-Jul-18 12:00 35.045623 -106.617185 261 5318ft 14kts
28-Jul-18 12:01 35.045488 -106.621223 229 5318ft 0kts
28-Jul-18 12:02 35.045430 -106.621285 207 5318ft 0kts
28-Jul-18 12:03 35.045430 -106.621285 207 5318ft 0kts
28-Jul-18 12:04 35.044369 -106.621157 112 5318ft 13kts
28-Jul-18 12:05 35.044183 -106.584112 89 5861ft 191kts
28-Jul-18 12:06 35.058908 -106.526957 9 8242ft 208kts
28-Jul-18 12:07 35.099302 -106.561987 317 9159ft 256kts
28-Jul-18 12:08 35.154601 -106.622454 317 10969ft 296kts
28-Jul-18 12:09 35.225559 -106.704008 317 14057ft 306kts
28-Jul-18 12:10 35.294623 -106.761221 328 15489ft 341kts
28-Jul-18 12:11 35.365612 -106.815725 328 16162ft 380kts
28-Jul-18 12:12 35.464678 -106.867380 351 17378ft 404kts
28-Jul-18 12:13 35.572294 -106.883949 350 18839ft 411kts
28-Jul-18 12:14 35.686716 -106.901394 350 20181ft 420kts
28-Jul-18 12:15 35.802928 -106.919872 350 21387ft 428kts
28-Jul-18 12:16 35.921756 -106.937069 354 22513ft 436kts
28-Jul-18 12:17 36.041912 -106.907073 11 23644ft 447kts
28-Jul-18 12:18 36.160135 -106.868709 11 24720ft 450kts
28-Jul-18 12:19 36.280309 -106.829597 11 25724ft 453kts
28-Jul-18 12:20 36.402111 -106.789504 11 26607ft 456kts
28-Jul-18 12:21 36.525027 -106.749492 11 27376ft 460kts
28-Jul-18 12:22 36.647390 -106.709150 11 28370ft 458kts
28-Jul-18 12:23 36.769484 -106.668848 11 29313ft 456kts
28-Jul-18 12:24 36.890095 -106.631135 9 29521ft 454kts
28-Jul-18 12:25 37.012627 -106.594747 9 29518ft 455kts
28-Jul-18 12:26 37.132248 -106.558326 7 29528ft 459kts
28-Jul-18 12:27 37.255215 -106.520997 7 29560ft 462kts
28-Jul-18 12:28 37.380108 -106.483408 7 29556ft 461kts
28-Jul-18 12:29 37.503765 -106.445726 7 29529ft 460kts
28-Jul-18 12:30 37.627725 -106.407903 7 29507ft 459kts
28-Jul-18 12:31 37.751079 -106.370143 7 29496ft 459kts
28-Jul-18 12:32 37.870858 -106.333384 8 29492ft 458kts
28-Jul-18 12:33 37.991105 -106.296315 8 29499ft 457kts
28-Jul-18 12:34 38.106335 -106.251442 18 29518ft 467kts
28-Jul-18 12:35 38.223758 -106.185307 18 29544ft 468kts
28-Jul-18 12:36 38.340853 -106.119571 18 29549ft 468kts
28-Jul-18 12:37 38.458661 -106.053000 17 29549ft 468kts
28-Jul-18 12:38 38.577509 -105.985865 18 29523ft 468kts
28-Jul-18 12:39 38.695466 -105.918398 17 29410ft 467kts
28-Jul-18 12:40 38.810517 -105.852750 18 28198ft 447kts
28-Jul-18 12:41 38.907905 -105.752372 39 25853ft 457kts
28-Jul-18 12:42 38.996621 -105.639487 39 23732ft 447kts
28-Jul-18 12:43 39.082502 -105.529493 39 21871ft 432kts
28-Jul-18 12:44 39.163181 -105.425859 39 19921ft 421kts
28-Jul-18 12:45 39.236800 -105.331777 39 18914ft 362kts
28-Jul-18 12:46 39.274330 -105.215771 71 17511ft 362kts
28-Jul-18 12:47 39.297632 -105.091319 74 15974ft 353kts
28-Jul-18 12:48 39.320760 -104.971624 77 14585ft 335kts
28-Jul-18 12:49 39.340946 -104.862191 70 13874ft 290kts
28-Jul-18 12:50 39.363924 -104.776733 58 13125ft 271kts
28-Jul-18 12:51 39.395410 -104.690004 32 12053ft 267kts
28-Jul-18 12:52 39.462139 -104.664732 357 11922ft 261kts
28-Jul-18 12:53 39.533739 -104.663680 357 11218ft 262kts
28-Jul-18 12:54 39.604973 -104.663428 359 9577ft 248kts
28-Jul-18 12:55 39.666797 -104.662492 358 8524ft 197kts
28-Jul-18 12:56 39.715563 -104.661819 359 7499ft 164kts
28-Jul-18 12:57 39.761012 -104.661430 359 6678ft 163kts
28-Jul-18 12:58 39.806090 -104.660913 0 5811ft 163kts
28-Jul-18 12:59 39.846002 -104.660354 0 5327ft 93kts
28-Jul-18 13:00 39.855814 -104.663476 273 5327ft 26kts
28-Jul-18 13:01 39.858118 -104.667771 0 5327ft 0kts
28-Jul-18 13:02 39.858120 -104.667771 0 5327ft 0kts
28-Jul-18 13:03 39.858120 -104.667771 0 5327ft 0kts

Navigation Log

Ident Type
Flight plan parsing failed, navigation log unavailable